Rubiataba, Brazil
Current Conditions -  °F | °C
As of 5:00 AM on Friday 24 Oct 2014 (Local Time) from SBAN Reporting Station
Broken Clouds Broken Clouds  
Wind Chill: 68°   Ceiling: 10000
Heat Index: 68°   Visibility: 6mi
Dew Point: 59°   Wind: 7mph
Humidity: 73%   Direction: 100°E
Pressure: 30.03"   Gusts: NA
Location:  15.16°S, 49.8°W
Report Text: SBAN 240700Z 10006KT 9999 FEW020 BKN100 20/15 Q1017
Loading
Personal Weather Stations






























Interactive Weather Map
Tropical Storm Tracking
New forecast layout! Learn more

10-Day Weather Forecast

Advertisements
Track Severe Weather on mobile